Time;durP1;ratioP1;P1;durP2;ratioP2;P2;SDS_P1;SDS_P2;PMS_P1;PMS_P2;Temp;Humidity;BMP_temperature;BMP_pressure;BME280_temperature;BME280_humidity;BME280_pressure;Samples;Min_cycle;Max_cycle;Signal;HPM_P1;HPM_P2
2023/03/07 00:01:42;;;;;;;1.27;0.60;;;;;;;1.89;70.26;99218.84;5111394;28;20035;-65
2023/03/07 00:04:07;;;;;;;6.07;0.60;;;;;;;1.84;69.96;99216.72;5112618;28;20031;-66
2023/03/07 00:06:33;;;;;;;2.47;1.00;;;;;;;1.93;70.34;99214.00;5127823;27;20547;-66
2023/03/07 00:09:00;;;;;;;2.55;0.70;;;;;;;1.76;69.45;99206.22;5112022;28;20366;-65
2023/03/07 00:11:26;;;;;;;4.13;0.80;;;;;;;1.79;69.92;99203.19;5112454;28;20044;-65
2023/03/07 00:13:52;;;;;;;5.90;1.02;;;;;;;1.68;70.04;99200.16;5112279;28;20019;-65
2023/03/07 00:16:20;;;;;;;2.03;0.70;;;;;;;1.63;69.79;99192.75;5112770;28;20031;-65
2023/03/07 00:18:46;;;;;;;3.92;0.70;;;;;;;1.40;69.35;99188.31;5112262;28;20027;-65
2023/03/07 00:21:14;;;;;;;1.25;0.60;;;;;;;1.73;69.16;99179.22;5111403;28;20064;-65
2023/03/07 00:23:43;;;;;;;2.60;0.82;;;;;;;1.79;68.95;99173.22;5112678;28;20067;-65
2023/03/07 00:26:14;;;;;;;3.17;0.85;;;;;;;1.65;68.08;99156.25;5112559;28;20103;-65
2023/03/07 00:28:39;;;;;;;1.85;0.70;;;;;;;1.70;68.36;99155.72;5112390;28;20130;-66
2023/03/07 00:31:07;;;;;;;3.83;0.80;;;;;;;1.68;68.27;99155.06;5110342;28;20120;-65
2023/03/07 00:33:33;;;;;;;3.08;0.70;;;;;;;1.74;67.60;99157.00;5112137;28;20030;-65
2023/03/07 00:36:02;;;;;;;4.60;0.80;;;;;;;1.63;67.10;99139.72;5112237;28;20040;-65
2023/03/07 00:38:29;;;;;;;0.93;0.60;;;;;;;1.58;67.35;99145.56;5112650;28;20051;-66
2023/03/07 00:41:00;;;;;;;3.72;0.88;;;;;;;1.85;67.97;99146.78;5112115;28;20490;-65
2023/03/07 00:43:26;;;;;;;2.70;0.73;;;;;;;1.61;67.08;99137.25;5112475;28;20048;-65
2023/03/07 00:45:52;;;;;;;3.17;0.70;;;;;;;1.83;67.76;99126.75;5112206;28;20059;-65
2023/03/07 00:48:17;;;;;;;4.78;0.90;;;;;;;1.82;66.84;99127.72;5112235;28;20058;-65
2023/03/07 00:50:44;;;;;;;2.28;0.60;;;;;;;1.48;66.73;99125.63;5090487;28;20111;-65
2023/03/07 00:53:09;;;;;;;1.90;0.73;;;;;;;1.77;66.20;99119.50;5094776;28;20089;-65
2023/03/07 00:55:34;;;;;;;3.30;0.80;;;;;;;1.51;67.53;99118.13;5094805;28;20028;-65
2023/03/07 00:58:00;;;;;;;1.98;0.60;;;;;;;1.17;66.89;99050.59;5095420;28;20387;-66
2023/03/07 01:00:25;;;;;;;1.73;0.50;;;;;;;1.60;67.51;99102.97;5095661;28;20028;-66
2023/03/07 01:02:51;;;;;;;3.13;0.70;;;;;;;1.61;67.36;99097.47;5095164;28;20099;-65
2023/03/07 01:05:16;;;;;;;4.10;0.60;;;;;;;1.52;67.21;99100.41;5095813;28;20028;-65
2023/03/07 01:07:42;;;;;;;3.42;0.68;;;;;;;1.54;67.45;99077.19;5095866;28;20482;-66
2023/03/07 01:10:08;;;;;;;4.93;0.65;;;;;;;1.67;67.23;99089.81;5095514;28;20024;-66
2023/03/07 01:12:34;;;;;;;2.40;0.65;;;;;;;1.62;67.47;99077.94;5095316;28;20024;-66
2023/03/07 01:14:59;;;;;;;2.65;0.80;;;;;;;1.60;67.42;99073.81;5095646;28;20061;-65
2023/03/07 01:17:25;;;;;;;1.73;0.57;;;;;;;1.56;67.32;99064.59;5095422;28;20084;-65
2023/03/07 01:19:50;;;;;;;1.98;0.60;;;;;;;1.24;67.87;99026.03;5095509;28;20097;-65
2023/03/07 01:22:15;;;;;;;4.60;0.73;;;;;;;1.80;66.99;99050.22;5095135;28;20403;-65
2023/03/07 01:24:41;;;;;;;5.70;1.13;;;;;;;1.83;66.51;99042.69;5093376;28;20035;-66
2023/03/07 01:27:06;;;;;;;3.25;0.95;;;;;;;1.67;67.11;99026.19;5095253;28;20031;-65
2023/03/07 01:29:31;;;;;;;3.00;0.70;;;;;;;1.81;67.24;99023.47;5095449;28;20032;-65
2023/03/07 01:31:57;;;;;;;2.80;1.20;;;;;;;1.65;67.69;99013.09;5094152;28;20492;-65
2023/03/07 01:34:22;;;;;;;3.83;0.88;;;;;;;1.62;67.63;99006.34;5094016;28;20058;-65
2023/03/07 01:36:48;;;;;;;2.47;0.80;;;;;;;1.56;67.71;98996.50;5094193;28;20543;-65
2023/03/07 01:39:15;;;;;;;3.45;0.80;;;;;;;1.74;67.29;98984.66;5094921;28;20118;-65
2023/03/07 01:41:42;;;;;;;3.25;0.80;;;;;;;1.55;67.82;98975.44;5095353;28;20024;-66
2023/03/07 01:44:20;;;;;;;4.85;0.80;;;;;;;1.40;67.70;98965.72;5095190;28;20031;-65
2023/03/07 01:46:54;;;;;;;1.33;0.50;;;;;;;1.60;67.65;98955.34;5094793;28;20034;-65
2023/03/07 01:49:41;;;;;;;4.10;0.77;;;;;;;1.51;67.30;98945.03;5094955;28;20050;-65
2023/03/07 01:52:15;;;;;;;1.90;0.60;;;;;;;1.51;67.02;98923.81;5094484;28;20282;-65
2023/03/07 01:54:47;;;;;;;2.88;0.70;;;;;;;1.60;67.79;98928.84;5094772;28;20416;-66
2023/03/07 01:57:15;;;;;;;2.10;0.70;;;;;;;1.85;66.47;98924.00;5093191;28;20036;-66
2023/03/07 01:59:46;;;;;;;3.15;0.70;;;;;;;1.88;66.77;98909.53;5094365;28;20020;-66
2023/03/07 02:02:18;;;;;;;2.05;0.52;;;;;;;1.77;66.67;98896.78;5093138;28;20020;-65
2023/03/07 02:04:49;;;;;;;4.25;0.57;;;;;;;1.96;66.39;98901.44;5094178;28;20447;-65
2023/03/07 02:07:19;;;;;;;2.30;0.63;;;;;;;1.76;67.30;98898.63;5095116;28;20012;-65
2023/03/07 02:09:47;;;;;;;1.65;0.50;;;;;;;1.92;66.41;98899.34;5094967;28;20020;-65
2023/03/07 02:12:13;;;;;;;4.22;0.80;;;;;;;1.92;65.97;98891.41;5095283;28;20032;-66
2023/03/07 02:14:43;;;;;;;1.80;0.60;;;;;;;2.08;66.13;98888.47;5094867;28;20040;-66
2023/03/07 02:17:08;;;;;;;2.63;0.60;;;;;;;1.95;66.67;98873.25;5116251;28;20019;-66
2023/03/07 02:20:08;;;;;;;2.50;0.70;;;;;;;2.12;65.89;98876.50;5100768;28;20533;-66
2023/03/07 02:22:34;;;;;;;1.50;0.55;;;;;;;1.61;67.47;98860.72;5094980;28;20537;-65
2023/03/07 02:25:05;;;;;;;1.80;0.60;;;;;;;1.93;66.91;98870.00;5094478;28;20158;-65
2023/03/07 02:27:33;;;;;;;2.50;0.45;;;;;;;1.62;66.53;98828.75;5093822;28;20020;-65
2023/03/07 02:29:59;;;;;;;2.90;0.57;;;;;;;1.68;67.83;98850.19;5092279;28;20031;-65
2023/03/07 02:32:24;;;;;;;2.70;0.70;;;;;;;1.79;67.17;98844.38;5092331;28;20406;-65
2023/03/07 02:34:50;;;;;;;1.63;0.63;;;;;;;2.03;66.45;98830.69;5093733;28;20487;-66
2023/03/07 02:37:24;;;;;;;2.72;0.65;;;;;;;2.03;66.89;98836.00;5092506;28;20032;-65
2023/03/07 02:39:50;;;;;;;1.70;0.55;;;;;;;1.83;66.95;98833.19;5093917;28;20024;-66
2023/03/07 02:42:20;;;;;;;2.72;0.38;;;;;;;1.94;66.97;98823.91;5093587;28;20451;-66
2023/03/07 02:44:46;;;;;;;2.92;0.52;;;;;;;1.89;67.51;98826.31;5093181;28;20040;-66
2023/03/07 02:47:11;;;;;;;2.60;0.80;;;;;;;2.00;67.21;98817.00;5093089;28;20505;-65
2023/03/07 02:49:37;;;;;;;2.08;0.50;;;;;;;1.68;68.71;98811.22;5094129;28;20070;-66
2023/03/07 02:52:03;;;;;;;3.05;0.57;;;;;;;1.67;69.33;98803.47;5093899;28;20021;-66
2023/03/07 02:54:28;;;;;;;4.05;0.70;;;;;;;1.88;68.72;98798.94;5092611;28;20414;-65
2023/03/07 02:56:53;;;;;;;3.20;0.73;;;;;;;1.00;75.12;98786.94;5093143;28;20036;-65
2023/03/07 02:59:19;;;;;;;2.42;0.60;;;;;;;1.24;75.42;98790.25;5093844;28;20071;-65
2023/03/07 03:01:45;;;;;;;2.15;0.70;;;;;;;1.28;75.70;98787.00;5109381;28;20103;-65
2023/03/07 03:04:10;;;;;;;2.47;0.60;;;;;;;1.09;77.27;98777.88;5101953;28;20111;-65
2023/03/07 03:06:35;;;;;;;3.05;0.60;;;;;;;1.17;77.47;98768.97;5093646;28;20039;-66
2023/03/07 03:09:01;;;;;;;1.60;0.70;;;;;;;1.17;78.57;98763.69;5093754;28;20479;-66
2023/03/07 03:11:26;;;;;;;2.00;0.70;;;;;;;1.11;78.01;98759.13;5091981;28;20103;-65
2023/03/07 03:13:52;;;;;;;1.50;0.50;;;;;;;0.87;79.35;98747.88;5090903;28;20232;-66
2023/03/07 03:16:17;;;;;;;4.40;0.70;;;;;;;0.79;82.43;98755.94;5090730;28;20052;-65
2023/03/07 03:18:43;;;;;;;2.53;0.70;;;;;;;0.64;83.46;98739.28;5091073;28;20491;-66
2023/03/07 03:21:10;;;;;;;3.90;1.10;;;;;;;0.86;81.10;98734.81;5090922;28;20040;-65
2023/03/07 03:23:36;;;;;;;1.75;0.60;;;;;;;0.05;88.84;98710.25;5092468;28;20024;-65
2023/03/07 03:26:06;;;;;;;3.67;0.82;;;;;;;0.57;84.58;98723.31;5092497;28;20043;-65
2023/03/07 03:28:33;;;;;;;3.70;0.90;;;;;;;0.75;82.97;98690.31;5092972;28;20020;-66
2023/03/07 03:31:01;;;;;;;4.45;0.85;;;;;;;0.33;88.64;98702.47;5092579;28;20094;-66
2023/03/07 03:33:30;;;;;;;3.08;0.82;;;;;;;0.62;85.86;98705.03;5092842;28;20440;-66
2023/03/07 03:35:56;;;;;;;6.22;1.20;;;;;;;0.46;89.05;98689.38;5091407;28;20107;-65
2023/03/07 03:38:22;;;;;;;3.40;0.75;;;;;;;0.06;91.64;98690.72;5092688;28;20024;-65
2023/03/07 03:40:47;;;;;;;5.80;1.33;;;;;;;0.13;93.16;98691.63;5092962;28;20072;-65
2023/03/07 03:43:13;;;;;;;3.03;1.02;;;;;;;-0.06;94.58;98671.88;5091306;28;20051;-65
2023/03/07 03:45:39;;;;;;;2.78;0.80;;;;;;;0.16;93.97;98670.91;5093131;28;20385;-65
2023/03/07 03:48:05;;;;;;;1.70;0.80;;;;;;;0.10;95.32;98665.56;5092089;28;20486;-65
2023/03/07 03:50:31;;;;;;;3.38;0.98;;;;;;;0.04;95.73;98661.03;5092697;28;20439;-65
2023/03/07 03:52:56;;;;;;;3.50;0.85;;;;;;;0.04;96.13;98645.97;5090830;28;20128;-65
2023/03/07 03:55:23;;;;;;;1.83;0.90;;;;;;;-0.28;97.95;98634.78;5091784;28;20032;-65
2023/03/07 03:57:48;;;;;;;5.38;0.90;;;;;;;-0.25;100.00;98636.25;5092730;28;20032;-65
2023/03/07 04:00:15;;;;;;;6.20;1.20;;;;;;;-0.13;99.26;98629.50;5092653;28;20047;-65
2023/03/07 04:02:41;;;;;;;2.60;0.80;;;;;;;-0.25;99.36;98621.19;5092273;28;20055;-65
2023/03/07 04:05:07;;;;;;;4.10;0.98;;;;;;;0.09;96.83;98616.31;5092353;28;20038;-66
2023/03/07 04:07:32;;;;;;;3.75;0.60;;;;;;;-0.31;100.00;98602.63;5092009;28;20508;-65
2023/03/07 04:09:58;;;;;;;3.88;0.80;;;;;;;-0.03;97.96;98602.78;5091336;28;20119;-66
2023/03/07 04:12:23;;;;;;;1.92;0.55;;;;;;;-0.39;99.87;98606.19;5091213;28;20024;-64
2023/03/07 04:14:48;;;;;;;2.40;0.85;;;;;;;-0.33;100.00;98584.31;5092147;28;20386;-66
2023/03/07 04:17:14;;;;;;;3.00;0.80;;;;;;;-0.50;100.00;98573.13;5092009;28;20106;-65
2023/03/07 04:19:39;;;;;;;3.65;1.00;;;;;;;-0.30;100.00;98569.88;5091852;28;20105;-65
2023/03/07 04:22:05;;;;;;;1.70;0.60;;;;;;;-0.59;100.00;98568.13;5092361;28;20562;-65
2023/03/07 04:24:31;;;;;;;2.83;0.80;;;;;;;-0.54;100.00;98557.81;5092650;28;20023;-66
2023/03/07 04:26:56;;;;;;;0.85;0.50;;;;;;;-0.44;100.00;98560.16;5090950;28;20039;-66
2023/03/07 04:29:21;;;;;;;3.20;1.05;;;;;;;-0.39;100.00;98534.03;5092855;28;20436;-66
2023/03/07 04:31:47;;;;;;;2.08;0.80;;;;;;;-0.76;100.00;98538.44;5091871;28;20058;-65
2023/03/07 04:34:12;;;;;;;4.03;0.90;;;;;;;-0.60;100.00;98526.84;5092084;28;20032;-66
2023/03/07 04:36:38;;;;;;;3.05;0.90;;;;;;;-0.68;100.00;98511.91;5091737;28;20386;-65
2023/03/07 04:39:03;;;;;;;1.63;0.80;;;;;;;-0.77;100.00;98491.88;5091844;28;20036;-66
2023/03/07 04:41:29;;;;;;;2.72;0.75;;;;;;;-0.53;100.00;98493.38;5091308;28;20032;-66
2023/03/07 04:43:54;;;;;;;3.92;1.35;;;;;;;-0.62;100.00;98482.13;5091925;28;20612;-66
2023/03/07 04:46:20;;;;;;;1.08;0.65;;;;;;;-0.58;100.00;98467.53;5091669;28;20031;-66
2023/03/07 04:48:46;;;;;;;1.50;0.43;;;;;;;-0.77;100.00;98452.28;5091929;28;20455;-66
2023/03/07 04:51:12;;;;;;;3.92;0.68;;;;;;;-0.55;100.00;98466.38;5091335;28;20035;-66
2023/03/07 04:53:37;;;;;;;2.53;0.60;;;;;;;-0.63;100.00;98454.09;5090944;28;20028;-66
2023/03/07 04:56:07;;;;;;;2.15;0.80;;;;;;;-0.88;100.00;98429.81;5091635;28;20020;-65
2023/03/07 04:58:33;;;;;;;2.20;0.60;;;;;;;-0.92;100.00;98448.84;5091344;28;20031;-66
2023/03/07 05:00:59;;;;;;;2.58;0.50;;;;;;;-0.83;100.00;98430.09;5091446;28;20020;-66
2023/03/07 05:03:26;;;;;;;0.77;0.30;;;;;;;-0.72;100.00;98431.44;5091663;28;20119;-65
2023/03/07 05:05:52;;;;;;;5.15;1.00;;;;;;;-1.02;100.00;98381.31;5091451;28;20079;-66
2023/03/07 05:08:17;;;;;;;3.38;0.52;;;;;;;-0.91;100.00;98405.59;5091474;28;20024;-66
2023/03/07 05:10:43;;;;;;;3.67;0.75;;;;;;;-0.67;100.00;98404.44;5091242;28;20048;-66
2023/03/07 05:13:09;;;;;;;2.65;0.70;;;;;;;-0.84;100.00;98383.53;5091820;28;20043;-67
2023/03/07 05:15:35;;;;;;;3.55;1.15;;;;;;;-0.93;100.00;98370.63;5091563;28;20106;-66
2023/03/07 05:18:01;;;;;;;0.82;0.60;;;;;;;-1.03;100.00;98363.81;5090818;28;20115;-67
2023/03/07 05:20:28;;;;;;;2.47;0.95;;;;;;;-1.01;100.00;98356.53;5090484;28;20064;-67
2023/03/07 05:22:55;;;;;;;1.20;0.50;;;;;;;-1.06;100.00;98361.56;5091222;28;20486;-65
2023/03/07 05:25:21;;;;;;;2.92;0.70;;;;;;;-1.27;100.00;98298.19;5091622;28;20043;-65
2023/03/07 05:27:46;;;;;;;2.92;0.60;;;;;;;-1.42;100.00;98316.69;5091706;28;20024;-66
2023/03/07 05:30:12;;;;;;;4.10;0.70;;;;;;;-1.15;100.00;98315.19;5091076;28;20039;-66
2023/03/07 05:32:37;;;;;;;2.17;0.60;;;;;;;-1.15;100.00;98299.34;5091654;28;20038;-66
2023/03/07 05:35:03;;;;;;;1.65;0.68;;;;;;;-1.25;100.00;98298.81;5091119;28;20035;-67
2023/03/07 05:37:29;;;;;;;2.45;0.90;;;;;;;-1.21;100.00;98285.06;5092564;28;20039;-66
2023/03/07 05:39:54;;;;;;;3.38;0.75;;;;;;;-1.31;100.00;98271.34;5093254;28;20039;-67
2023/03/07 05:42:19;;;;;;;6.35;1.13;;;;;;;-1.30;100.00;98282.72;5096000;28;20055;-68
2023/03/07 05:44:45;;;;;;;2.33;0.60;;;;;;;-1.15;100.00;98262.41;5096153;28;20576;-67
2023/03/07 05:47:10;;;;;;;4.78;1.20;;;;;;;-1.16;100.00;98246.75;5095553;28;20362;-67
2023/03/07 05:49:36;;;;;;;1.58;0.63;;;;;;;-1.13;100.00;98257.75;5095024;28;20050;-67
2023/03/07 05:52:01;;;;;;;1.88;0.70;;;;;;;-0.86;100.00;98236.88;5095303;28;20032;-66
2023/03/07 05:54:27;;;;;;;2.80;0.75;;;;;;;-1.01;100.00;98219.31;5094899;28;20032;-66
2023/03/07 05:56:52;;;;;;;1.30;0.63;;;;;;;-0.93;100.00;98214.91;5094838;28;20040;-66
2023/03/07 05:59:18;;;;;;;1.35;0.82;;;;;;;-1.12;100.00;98222.44;5093909;28;20128;-67
2023/03/07 06:01:43;;;;;;;1.70;0.90;;;;;;;-1.15;100.00;98219.38;5095134;28;20028;-67
2023/03/07 06:04:09;;;;;;;2.97;0.77;;;;;;;-1.09;100.00;98210.69;5094238;28;20020;-67
2023/03/07 06:06:35;;;;;;;2.40;0.80;;;;;;;-1.26;100.00;98197.75;5094913;28;20036;-66
2023/03/07 06:09:00;;;;;;;4.30;0.90;;;;;;;-0.91;100.00;98207.63;5094701;28;20034;-67
2023/03/07 06:11:27;;;;;;;3.00;0.95;;;;;;;-0.91;100.00;98189.94;5092459;28;20135;-67
2023/03/07 06:13:54;;;;;;;2.38;0.82;;;;;;;-1.12;100.00;98192.63;5093379;28;20530;-67
2023/03/07 06:16:20;;;;;;;3.28;1.20;;;;;;;-1.15;100.00;98175.31;5094237;28;20036;-67
2023/03/07 06:18:45;;;;;;;2.03;0.82;;;;;;;-1.17;100.00;98185.25;5092300;28;20031;-66
2023/03/07 06:21:14;;;;;;;4.75;1.10;;;;;;;-0.99;100.00;98155.78;5092372;28;20032;-67
2023/03/07 06:23:40;;;;;;;2.70;1.38;;;;;;;-1.02;100.00;98159.63;5092290;28;20462;-66
2023/03/07 06:26:07;;;;;;;4.03;1.48;;;;;;;-1.00;100.00;98138.28;5092446;28;20028;-64
2023/03/07 06:28:33;;;;;;;2.83;1.20;;;;;;;-1.09;100.00;98169.28;5092188;28;20081;-66
2023/03/07 06:30:59;;;;;;;3.65;1.35;;;;;;;-1.04;100.00;98164.25;5092459;28;20065;-67
2023/03/07 06:33:24;;;;;;;1.90;0.95;;;;;;;-1.22;100.00;98156.78;5093214;28;20461;-66
2023/03/07 06:35:50;;;;;;;1.83;1.05;;;;;;;-1.03;100.00;98172.97;5094102;28;20425;-65
2023/03/07 06:38:16;;;;;;;3.05;1.38;;;;;;;-0.86;100.00;98168.25;5093058;28;20016;-64
2023/03/07 06:40:42;;;;;;;3.50;2.30;;;;;;;-0.73;100.00;98144.59;5094006;28;20035;-66
2023/03/07 06:43:10;;;;;;;6.60;3.50;;;;;;;-0.86;100.00;98165.59;5093825;28;20111;-65
2023/03/07 06:45:35;;;;;;;4.65;1.70;;;;;;;-0.66;100.00;98152.56;5093468;28;20024;-66
2023/03/07 06:48:01;;;;;;;6.82;4.47;;;;;;;-0.41;100.00;98145.03;5099629;28;20024;-66
2023/03/07 06:50:26;;;;;;;2.90;1.70;;;;;;;-0.44;100.00;98148.03;5112278;28;20345;-66
2023/03/07 06:52:52;;;;;;;3.38;1.63;;;;;;;-0.85;100.00;98133.75;5095468;28;20035;-66
2023/03/07 06:55:18;;;;;;;5.00;1.25;;;;;;;-0.78;100.00;98136.44;5094606;28;20589;-66
2023/03/07 06:57:44;;;;;;;4.82;1.30;;;;;;;-0.88;100.00;98136.78;5095027;28;20130;-66
2023/03/07 07:00:10;;;;;;;3.22;1.50;;;;;;;-0.75;100.00;98112.31;5093483;28;20061;-66
2023/03/07 07:02:36;;;;;;;2.83;1.52;;;;;;;-0.62;100.00;98138.81;5093547;28;20052;-66
2023/03/07 07:05:02;;;;;;;2.90;1.23;;;;;;;-0.50;100.00;98124.06;5092727;28;20495;-65
2023/03/07 07:07:28;;;;;;;3.10;1.88;;;;;;;-0.73;100.00;98104.97;5093022;28;20035;-65
2023/03/07 07:09:53;;;;;;;2.72;1.60;;;;;;;-0.44;100.00;98111.06;5093174;28;20336;-63
2023/03/07 07:12:19;;;;;;;2.67;1.33;;;;;;;-0.82;100.00;98088.50;5093078;28;20073;-62
2023/03/07 07:14:44;;;;;;;4.53;1.65;;;;;;;-0.74;100.00;98084.88;5110024;28;20035;-64
2023/03/07 07:17:10;;;;;;;4.85;1.42;;;;;;;-0.57;100.00;98065.06;5092242;28;20441;-65
2023/03/07 07:19:35;;;;;;;2.80;1.27;;;;;;;-0.66;100.00;98083.91;5091832;28;20044;-64
2023/03/07 07:22:01;;;;;;;2.03;1.08;;;;;;;-0.71;100.00;98071.28;5091980;28;20031;-63
2023/03/07 07:24:26;;;;;;;3.45;1.02;;;;;;;-0.39;100.00;98069.84;5093230;28;20028;-67
2023/03/07 07:26:52;;;;;;;4.57;1.48;;;;;;;-0.54;100.00;98055.94;5092606;28;20521;-64
2023/03/07 07:29:17;;;;;;;1.52;0.95;;;;;;;-0.43;100.00;98051.94;5092626;28;20016;-65
2023/03/07 07:31:43;;;;;;;1.75;1.02;;;;;;;-0.92;100.00;97977.16;5092642;28;20110;-63
2023/03/07 07:34:08;;;;;;;2.70;0.88;;;;;;;-0.52;100.00;98049.47;5093619;28;20040;-65
2023/03/07 07:36:34;;;;;;;1.88;1.00;;;;;;;-0.42;100.00;98035.91;5112075;28;20036;-65
2023/03/07 07:39:04;;;;;;;2.50;0.73;;;;;;;-0.29;100.00;98033.31;5095075;28;20036;-63
2023/03/07 07:41:30;;;;;;;2.90;1.40;;;;;;;-0.38;100.00;98039.78;5093813;28;20031;-64
2023/03/07 07:43:56;;;;;;;1.95;1.23;;;;;;;-0.39;100.00;98016.22;5092613;28;20077;-65
2023/03/07 07:46:21;;;;;;;2.75;1.00;;;;;;;-0.20;100.00;98031.28;5093633;28;20431;-64
2023/03/07 07:48:47;;;;;;;3.20;1.30;;;;;;;-0.10;100.00;98012.41;5093243;28;20103;-65
2023/03/07 07:51:12;;;;;;;2.30;1.05;;;;;;;-0.29;100.00;98014.81;5091225;28;20047;-64
2023/03/07 07:53:38;;;;;;;2.58;1.23;;;;;;;-0.10;100.00;98017.69;5092883;28;20057;-65
2023/03/07 07:56:03;;;;;;;1.40;1.02;;;;;;;-0.31;100.00;98014.19;5091154;28;20032;-64
2023/03/07 07:58:29;;;;;;;1.73;1.00;;;;;;;-0.21;100.00;97997.16;5092616;28;20036;-65
2023/03/07 08:00:54;;;;;;;2.97;1.40;;;;;;;-0.07;100.00;97999.63;5090929;28;20115;-65
2023/03/07 08:03:20;;;;;;;3.08;1.33;;;;;;;-0.02;100.00;98004.31;5092135;28;20031;-64
2023/03/07 08:05:47;;;;;;;2.47;0.93;;;;;;;-0.07;100.00;97998.81;5092949;28;20423;-64
2023/03/07 08:08:15;;;;;;;1.50;0.70;;;;;;;-0.04;100.00;97995.75;5091992;28;20537;-64
2023/03/07 08:10:42;;;;;;;2.70;1.05;;;;;;;-0.14;100.00;97987.41;5092022;28;20028;-64
2023/03/07 08:13:11;;;;;;;3.72;1.20;;;;;;;-0.06;100.00;97974.81;5091687;28;20031;-63
2023/03/07 08:15:36;;;;;;;1.95;1.02;;;;;;;0.07;99.95;97981.16;5091830;28;20398;-64
2023/03/07 08:18:01;;;;;;;3.08;1.17;;;;;;;-0.01;99.57;97966.28;5106806;28;20043;-64
2023/03/07 08:20:27;;;;;;;1.73;1.10;;;;;;;0.23;99.17;97968.38;5092001;28;20052;-64
2023/03/07 08:22:52;;;;;;;1.40;0.95;;;;;;;-0.06;98.74;97963.44;5090429;28;20174;-64
2023/03/07 08:25:21;;;;;;;2.38;0.95;;;;;;;0.02;99.44;97963.25;5091943;28;20035;-64
2023/03/07 08:27:51;;;;;;;2.33;1.17;;;;;;;0.33;98.01;97940.69;5091824;28;20047;-64
2023/03/07 08:30:17;;;;;;;2.55;1.00;;;;;;;0.31;98.11;97962.06;5091674;28;20128;-64
2023/03/07 08:32:43;;;;;;;1.25;0.90;;;;;;;0.31;97.43;97959.41;5092010;28;20027;-64
2023/03/07 08:35:08;;;;;;;3.85;1.20;;;;;;;0.59;96.76;97943.31;5091353;28;20116;-65
2023/03/07 08:37:34;;;;;;;2.08;0.98;;;;;;;0.19;97.82;97945.16;5091872;28;20153;-64
2023/03/07 08:39:59;;;;;;;3.55;1.05;;;;;;;0.32;97.96;97950.44;5091592;28;20032;-64
2023/03/07 08:42:25;;;;;;;1.90;1.00;;;;;;;0.08;99.99;97951.06;5095895;28;20046;-66
2023/03/07 08:44:50;;;;;;;1.65;0.82;;;;;;;0.06;100.00;97929.28;5097246;28;20526;-64
2023/03/07 08:47:15;;;;;;;2.08;1.13;;;;;;;0.19;100.00;97924.00;5091331;28;20028;-64
2023/03/07 08:49:41;;;;;;;2.13;1.02;;;;;;;0.12;100.00;97944.34;5092123;28;20394;-64
2023/03/07 08:52:06;;;;;;;2.15;0.90;;;;;;;0.33;100.00;97930.09;5091382;28;20060;-64
2023/03/07 08:54:32;;;;;;;4.22;1.50;;;;;;;0.31;100.00;97926.88;5091988;28;20103;-64
2023/03/07 08:56:58;;;;;;;1.98;1.10;;;;;;;0.31;100.00;97932.16;5090284;28;20028;-64
2023/03/07 08:59:23;;;;;;;3.85;1.05;;;;;;;0.31;100.00;97924.22;5091439;28;20032;-65
2023/03/07 09:01:49;;;;;;;3.20;1.23;;;;;;;-0.09;100.00;97866.06;5091599;28;20468;-64
2023/03/07 09:04:14;;;;;;;3.55;1.52;;;;;;;0.40;100.00;97931.75;5090173;28;20043;-64
2023/03/07 09:06:40;;;;;;;2.83;1.45;;;;;;;0.72;100.00;97931.09;5091898;28;20036;-64
2023/03/07 09:09:05;;;;;;;3.75;0.90;;;;;;;0.49;100.00;97924.41;5091663;28;20081;-65
2023/03/07 09:11:30;;;;;;;3.28;1.17;;;;;;;0.67;100.00;97918.50;5090619;28;20034;-64
2023/03/07 09:13:56;;;;;;;3.40;1.33;;;;;;;0.88;100.00;97917.41;5094499;28;20036;-64
2023/03/07 09:16:22;;;;;;;2.80;0.95;;;;;;;0.61;100.00;97914.00;5095829;28;20020;-66
2023/03/07 09:18:47;;;;;;;2.70;1.27;;;;;;;0.43;100.00;97911.97;5094925;28;20055;-63
2023/03/07 09:21:13;;;;;;;3.90;0.95;;;;;;;0.23;100.00;97907.53;5095785;28;20090;-64
2023/03/07 09:23:38;;;;;;;4.07;1.30;;;;;;;0.42;100.00;97891.84;5095782;28;20024;-64
2023/03/07 09:26:04;;;;;;;2.47;1.20;;;;;;;0.65;98.96;97894.06;5095341;28;20103;-64
2023/03/07 09:28:30;;;;;;;1.83;0.90;;;;;;;0.18;100.00;97898.59;5095221;28;20074;-64
2023/03/07 09:30:56;;;;;;;3.28;1.20;;;;;;;0.53;100.00;97895.69;5094930;28;20028;-69
2023/03/07 09:33:21;;;;;;;4.25;1.58;;;;;;;0.67;98.78;97897.31;5095159;28;20035;-65
2023/03/07 09:35:47;;;;;;;2.92;1.48;;;;;;;0.75;97.45;97889.13;5095165;28;20032;-64
2023/03/07 09:38:12;;;;;;;6.68;1.52;;;;;;;0.32;98.47;97883.53;5095337;28;20032;-64
2023/03/07 09:40:38;;;;;;;2.45;1.00;;;;;;;0.66;97.35;97896.50;5095562;28;20482;-64
2023/03/07 09:43:17;;;;;;;4.35;1.40;;;;;;;1.01;95.71;97903.31;5095216;28;20028;-65
2023/03/07 09:45:46;;;;;;;3.33;1.50;;;;;;;0.68;95.88;97889.16;5095481;28;20020;-64
2023/03/07 09:48:44;;;;;;;2.85;1.13;;;;;;;0.87;95.09;97892.78;5095321;28;20077;-65
2023/03/07 09:51:38;;;;;;;2.65;1.00;;;;;;;0.91;94.70;97888.69;5093503;28;20028;-65
2023/03/07 09:54:10;;;;;;;1.95;1.00;;;;;;;0.94;94.48;97874.22;5094073;28;20055;-64
2023/03/07 09:56:42;;;;;;;2.03;0.90;;;;;;;1.22;93.75;97886.31;5097478;28;20032;-64
2023/03/07 09:59:26;;;;;;;1.67;1.00;;;;;;;1.02;93.10;97871.31;5104758;28;20015;-64
2023/03/07 10:01:59;;;;;;;1.83;1.20;;;;;;;0.97;92.33;97870.34;5094515;28;20036;-64
2023/03/07 10:04:34;;;;;;;3.97;1.27;;;;;;;1.12;92.18;97866.41;5095471;28;20038;-64
2023/03/07 10:07:02;;;;;;;1.60;1.10;;;;;;;1.42;91.28;97876.44;5093860;28;20027;-64
2023/03/07 10:09:28;;;;;;;3.30;1.20;;;;;;;1.10;91.25;97878.25;5093756;28;20031;-65
2023/03/07 10:12:17;;;;;;;2.03;1.23;;;;;;;0.91;92.09;97869.34;5094361;28;20032;-65
2023/03/07 10:14:51;;;;;;;3.88;1.10;;;;;;;0.96;92.26;97872.19;5094455;28;20077;-64
2023/03/07 10:17:19;;;;;;;1.85;0.93;;;;;;;0.85;92.77;97855.09;5094066;28;20089;-64
2023/03/07 10:19:50;;;;;;;2.35;0.90;;;;;;;1.18;91.73;97852.31;5093176;28;20105;-64
2023/03/07 10:22:26;;;;;;;3.83;1.30;;;;;;;1.45;90.79;97860.13;5093749;28;20024;-64
2023/03/07 10:25:20;;;;;;;2.58;1.20;;;;;;;1.15;90.92;97858.03;5092679;28;20028;-65
2023/03/07 10:27:48;;;;;;;2.20;1.30;;;;;;;1.39;90.69;97861.81;5086222;28;20028;-66
2023/03/07 10:30:19;;;;;;;3.97;1.42;;;;;;;1.53;90.32;97843.19;5094752;28;20028;-66
2023/03/07 10:32:53;;;;;;;1.65;1.10;;;;;;;2.02;87.60;97837.09;5095467;28;20020;-65
2023/03/07 10:35:30;;;;;;;2.13;1.10;;;;;;;2.21;87.41;97831.81;5095325;28;20043;-66
2023/03/07 10:38:01;;;;;;;1.40;1.10;;;;;;;2.05;86.83;97839.31;5093994;28;20532;-66
2023/03/07 10:40:47;;;;;;;2.95;1.23;;;;;;;2.14;86.71;97828.44;5094293;28;20089;-65
2023/03/07 10:43:32;;;;;;;1.25;1.00;;;;;;;1.96;87.08;97818.59;5093498;28;20031;-65
2023/03/07 10:46:09;;;;;;;2.22;1.17;;;;;;;1.79;88.55;97818.31;5094216;28;20035;-66
2023/03/07 10:48:37;;;;;;;1.90;0.93;;;;;;;2.15;87.06;97819.44;5094182;28;20077;-65
2023/03/07 10:51:32;;;;;;;5.45;1.27;;;;;;;2.18;87.44;97822.44;5094367;28;20086;-65
2023/03/07 10:53:58;;;;;;;2.25;1.00;;;;;;;2.30;86.54;97826.03;5069609;28;20040;-65
2023/03/07 10:56:23;;;;;;;1.50;0.85;;;;;;;2.21;88.06;97816.72;5093490;28;20032;-65
2023/03/07 10:59:09;;;;;;;2.58;0.95;;;;;;;2.11;88.25;97819.88;5093528;28;20392;-65
2023/03/07 11:01:37;;;;;;;1.88;1.10;;;;;;;2.16;88.35;97823.72;5092943;28;20098;-66
2023/03/07 11:04:18;;;;;;;1.55;0.95;;;;;;;2.30;88.33;97811.94;5092934;28;20020;-66
2023/03/07 11:06:58;;;;;;;5.68;1.02;;;;;;;2.13;88.88;97809.06;5089381;28;20168;-66
2023/03/07 11:09:27;;;;;;;1.40;0.90;;;;;;;1.75;90.92;97803.84;5093378;28;20035;-67
2023/03/07 11:12:05;;;;;;;3.60;1.00;;;;;;;1.82;91.41;97817.88;5098669;28;20019;-66
2023/03/07 11:14:45;;;;;;;2.80;1.17;;;;;;;1.98;91.47;97814.69;5090242;28;20046;-65
2023/03/07 11:17:38;;;;;;;2.13;1.20;;;;;;;2.28;90.28;97806.84;5090542;28;20012;-66
2023/03/07 11:20:21;;;;;;;3.08;1.20;;;;;;;2.14;90.30;97817.81;5091985;28;20151;-66
2023/03/07 11:22:48;;;;;;;2.10;1.35;;;;;;;1.99;91.16;97820.81;5089882;28;20490;-66
2023/03/07 11:25:21;;;;;;;3.45;1.20;;;;;;;1.94;91.32;97802.88;5091852;28;20134;-66
2023/03/07 11:27:55;;;;;;;2.35;0.88;;;;;;;1.74;92.23;97810.19;5091180;28;20478;-66
2023/03/07 11:30:42;;;;;;;2.53;1.35;;;;;;;1.70;92.94;97815.13;5089688;28;20028;-64
2023/03/07 11:33:20;;;;;;;2.35;0.80;;;;;;;1.59;93.93;97818.44;5093103;28;20505;-64
2023/03/07 11:35:56;;;;;;;2.30;1.17;;;;;;;1.78;93.84;97814.84;5092769;28;20050;-65
2023/03/07 11:38:25;;;;;;;1.67;0.90;;;;;;;1.78;93.57;97806.09;5092716;28;20043;-66